createdAt,value
2018-12-31T00:00:59.454Z,3.02
2018-12-31T00:03:39.567Z,3.62
2018-12-31T00:06:19.471Z,3.40
2018-12-31T00:08:59.101Z,3.52
2018-12-31T00:11:38.992Z,3.40
2018-12-31T00:14:19.065Z,3.20
2018-12-31T00:16:59.014Z,4.30
2018-12-31T00:19:40.108Z,4.05
2018-12-31T00:22:19.969Z,3.62
2018-12-31T00:24:59.886Z,3.95
2018-12-31T00:27:39.760Z,3.95
2018-12-31T00:30:19.695Z,4.00
2018-12-31T00:32:59.479Z,3.80
2018-12-31T00:35:39.523Z,3.50
2018-12-31T00:38:19.325Z,3.72
2018-12-31T00:40:59.944Z,3.80
2018-12-31T00:43:39.733Z,4.17
2018-12-31T00:46:19.884Z,4.37
2018-12-31T00:48:59.905Z,4.00
2018-12-31T00:51:39.736Z,4.03
2018-12-31T00:54:19.415Z,3.77
2018-12-31T00:56:59.197Z,3.52
2018-12-31T00:59:38.886Z,3.58
2018-12-31T01:02:19.213Z,4.58
2018-12-31T01:04:58.913Z,6.35
2018-12-31T01:07:38.788Z,4.40
2018-12-31T01:10:18.454Z,3.65
2018-12-31T01:12:58.630Z,3.55
2018-12-31T01:15:38.480Z,3.27
2018-12-31T01:18:18.373Z,3.47
2018-12-31T01:20:59.115Z,3.33
2018-12-31T01:23:38.809Z,3.77
2018-12-31T01:26:22.631Z,3.08
2018-12-31T01:29:02.552Z,3.17
2018-12-31T01:31:42.486Z,3.65
2018-12-31T01:34:23.396Z,3.27
2018-12-31T01:37:03.056Z,3.72
2018-12-31T01:39:42.723Z,3.37
2018-12-31T01:42:22.433Z,3.25
2018-12-31T01:45:02.443Z,3.17
2018-12-31T01:47:44.784Z,3.25
2018-12-31T01:50:24.491Z,2.98
2018-12-31T01:53:04.523Z,3.27
2018-12-31T01:55:44.348Z,3.25
2018-12-31T01:58:25.295Z,3.72
2018-12-31T02:01:05.172Z,3.17
2018-12-31T02:03:44.857Z,2.92
2018-12-31T02:06:24.903Z,2.80
2018-12-31T02:09:06.758Z,3.08
2018-12-31T02:11:46.473Z,3.95
2018-12-31T02:14:26.223Z,3.58
2018-12-31T02:17:05.963Z,3.33
2018-12-31T02:19:45.969Z,3.22
2018-12-31T02:22:25.917Z,2.62
2018-12-31T02:25:05.791Z,3.30
2018-12-31T02:27:45.462Z,3.20
2018-12-31T02:30:25.200Z,2.72
2018-12-31T02:33:05.084Z,2.85
2018-12-31T02:35:44.721Z,3.30
2018-12-31T02:38:24.535Z,2.70
2018-12-31T02:41:04.413Z,3.00
2018-12-31T02:43:44.274Z,2.95
2018-12-31T02:46:23.972Z,2.60
2018-12-31T02:49:03.767Z,1.98
2018-12-31T02:51:43.549Z,2.35
2018-12-31T02:54:23.314Z,2.58
2018-12-31T02:57:03.051Z,2.35
2018-12-31T02:59:43.258Z,3.27
2018-12-31T03:02:24.373Z,2.25
2018-12-31T03:05:04.694Z,2.58
2018-12-31T03:07:44.394Z,2.92
2018-12-31T03:10:33.354Z,2.77
2018-12-31T03:13:13.065Z,2.50
2018-12-31T03:15:53.047Z,2.60
2018-12-31T03:18:32.638Z,2.50
2018-12-31T03:21:14.564Z,2.67
2018-12-31T03:23:54.345Z,2.75
2018-12-31T03:26:35.004Z,3.20
2018-12-31T03:29:14.921Z,2.40
2018-12-31T03:31:54.921Z,2.52
2018-12-31T03:34:34.738Z,2.72
2018-12-31T03:37:14.737Z,2.58
2018-12-31T03:39:55.550Z,3.40
2018-12-31T03:42:35.297Z,3.10
2018-12-31T03:45:15.354Z,3.00
2018-12-31T03:47:55.092Z,3.35
2018-12-31T03:50:35.064Z,3.67
2018-12-31T03:53:14.828Z,2.98
2018-12-31T03:55:55.887Z,3.67
2018-12-31T03:58:35.548Z,3.30
2018-12-31T04:01:15.326Z,2.80
2018-12-31T04:03:55.051Z,3.05
2018-12-31T04:06:34.725Z,2.65
2018-12-31T04:09:14.338Z,3.20
2018-12-31T04:11:54.006Z,2.70
2018-12-31T04:14:33.649Z,2.60
2018-12-31T04:17:13.674Z,2.62
2018-12-31T04:19:53.498Z,3.15
2018-12-31T04:22:35.893Z,3.22
2018-12-31T04:25:16.933Z,3.42
2018-12-31T04:27:56.574Z,3.60
2018-12-31T04:30:36.528Z,4.05
2018-12-31T04:33:16.412Z,3.33
2018-12-31T04:35:56.445Z,4.20
2018-12-31T04:38:36.210Z,3.30
2018-12-31T04:41:16.099Z,3.50
2018-12-31T04:43:55.746Z,3.27
2018-12-31T04:46:35.628Z,3.55
2018-12-31T04:49:15.687Z,3.80
2018-12-31T04:51:55.398Z,3.90
2018-12-31T04:54:35.350Z,3.42
2018-12-31T04:57:15.025Z,3.55
2018-12-31T04:59:54.684Z,3.52
2018-12-31T05:02:34.484Z,4.17
2018-12-31T05:05:17.291Z,4.35
2018-12-31T05:07:57.846Z,3.90
2018-12-31T05:10:37.519Z,4.50
2018-12-31T05:13:17.369Z,4.78
2018-12-31T05:15:57.297Z,4.53
2018-12-31T05:18:38.490Z,5.35
2018-12-31T05:21:18.238Z,5.25
2018-12-31T05:23:58.221Z,5.80
2018-12-31T05:26:37.909Z,5.53
2018-12-31T05:29:21.241Z,7.45
2018-12-31T05:32:01.142Z,7.22
2018-12-31T05:34:40.931Z,7.22
2018-12-31T05:37:20.770Z,6.97
2018-12-31T05:40:00.830Z,6.83
2018-12-31T05:42:40.601Z,7.62
2018-12-31T05:45:20.449Z,7.67
2018-12-31T05:48:00.090Z,8.23
2018-12-31T05:50:39.837Z,8.93
2018-12-31T05:53:19.541Z,9.30
2018-12-31T05:55:59.402Z,9.10
2018-12-31T05:58:39.459Z,10.08
2018-12-31T06:01:19.170Z,9.65
2018-12-31T06:04:01.884Z,10.15
2018-12-31T06:06:41.728Z,10.85
2018-12-31T06:09:23.949Z,9.98
2018-12-31T06:12:03.696Z,10.82
2018-12-31T06:14:43.502Z,9.60
2018-12-31T06:17:23.184Z,10.28
2018-12-31T06:20:04.036Z,10.28
2018-12-31T06:22:43.783Z,10.55
2018-12-31T06:25:23.547Z,9.85
2018-12-31T06:28:03.769Z,10.08
2018-12-31T06:30:43.856Z,10.48
2018-12-31T06:33:23.855Z,9.75
2018-12-31T06:36:03.597Z,9.60
2018-12-31T06:38:43.276Z,9.63
2018-12-31T06:41:23.283Z,10.63
2018-12-31T06:44:03.138Z,10.10
2018-12-31T06:46:42.823Z,8.70
2018-12-31T06:49:25.496Z,10.15
2018-12-31T06:52:05.203Z,10.13
2018-12-31T06:54:45.106Z,9.65
2018-12-31T06:57:24.750Z,9.10
2018-12-31T07:00:04.961Z,10.20
2018-12-31T07:02:44.946Z,10.75
2018-12-31T07:05:25.257Z,10.40
2018-12-31T07:08:05.085Z,9.70
2018-12-31T07:10:44.763Z,9.50
2018-12-31T07:13:24.421Z,9.75
2018-12-31T07:16:04.304Z,9.78
2018-12-31T07:18:43.966Z,10.65
2018-12-31T07:21:23.796Z,10.93
2018-12-31T07:24:03.571Z,11.10
2018-12-31T07:26:44.866Z,11.33
2018-12-31T07:29:30.021Z,11.08
2018-12-31T07:32:09.861Z,11.08
2018-12-31T07:34:49.979Z,10.82
2018-12-31T07:37:29.723Z,10.20
2018-12-31T07:40:09.618Z,10.55
2018-12-31T07:42:51.181Z,9.65
2018-12-31T07:45:31.046Z,10.15
2018-12-31T07:48:10.794Z,10.90
2018-12-31T07:50:50.837Z,11.25
2018-12-31T07:53:31.001Z,10.72
2018-12-31T07:56:12.336Z,10.55
2018-12-31T07:58:52.290Z,11.83
2018-12-31T08:01:33.242Z,10.58
2018-12-31T08:04:13.054Z,9.58
2018-12-31T08:06:52.997Z,10.58
2018-12-31T08:09:35.166Z,10.25
2018-12-31T08:12:14.826Z,10.80
2018-12-31T08:14:54.829Z,22.65
2018-12-31T08:17:35.722Z,23.22
2018-12-31T08:20:15.406Z,12.65
2018-12-31T08:22:55.203Z,11.68
2018-12-31T08:25:35.888Z,11.95
2018-12-31T08:28:18.142Z,11.30
2018-12-31T08:30:57.906Z,11.43
2018-12-31T08:33:39.641Z,10.80
2018-12-31T08:36:19.376Z,11.38
2018-12-31T08:39:01.612Z,11.22
2018-12-31T08:41:44.428Z,11.63
2018-12-31T08:44:27.329Z,11.75
2018-12-31T08:47:06.957Z,10.93
2018-12-31T08:49:47.902Z,11.45
2018-12-31T08:52:29.906Z,11.93
2018-12-31T08:55:12.340Z,11.60
2018-12-31T08:57:57.476Z,11.83
2018-12-31T09:00:37.214Z,12.07
2018-12-31T09:03:19.150Z,10.40
2018-12-31T09:06:00.040Z,11.05
2018-12-31T09:08:39.755Z,10.38
2018-12-31T09:11:21.715Z,10.85
2018-12-31T09:14:01.607Z,11.43
2018-12-31T09:16:42.622Z,11.00
2018-12-31T09:19:25.302Z,19.27
2018-12-31T09:22:05.165Z,15.65
2018-12-31T09:24:47.521Z,13.03
2018-12-31T09:27:27.501Z,10.55
2018-12-31T09:30:07.556Z,11.40
2018-12-31T09:32:50.203Z,15.83
2018-12-31T09:35:34.307Z,14.65
2018-12-31T09:38:15.409Z,13.85
2018-12-31T09:40:55.186Z,11.75
2018-12-31T09:43:34.884Z,12.03
2018-12-31T09:46:17.733Z,13.10
2018-12-31T09:48:57.782Z,12.20
2018-12-31T09:51:37.684Z,12.07
2018-12-31T09:54:17.478Z,11.43
2018-12-31T09:56:58.470Z,11.00
2018-12-31T09:59:38.193Z,11.15
2018-12-31T10:02:17.911Z,11.38
2018-12-31T10:04:57.944Z,10.68
2018-12-31T10:07:39.989Z,10.18
2018-12-31T10:10:22.099Z,9.55
2018-12-31T10:13:01.773Z,10.85
2018-12-31T10:15:43.782Z,10.80
2018-12-31T10:18:23.804Z,10.55
2018-12-31T10:21:03.589Z,11.40
2018-12-31T10:23:43.237Z,10.48
2018-12-31T10:26:22.931Z,10.53
2018-12-31T10:29:05.734Z,11.57
2018-12-31T10:31:46.527Z,10.78
2018-12-31T10:34:27.068Z,10.93
2018-12-31T10:37:06.734Z,10.82
2018-12-31T10:39:47.810Z,10.38
2018-12-31T10:42:29.893Z,12.13
2018-12-31T10:45:11.920Z,11.30
2018-12-31T10:47:53.190Z,11.53
2018-12-31T10:50:32.956Z,11.00
2018-12-31T10:53:12.862Z,11.15
2018-12-31T10:55:53.086Z,12.05
2018-12-31T10:58:35.271Z,12.73
2018-12-31T11:01:16.307Z,12.98
2018-12-31T11:03:56.175Z,11.57
2018-12-31T11:06:35.902Z,11.28
2018-12-31T11:09:15.958Z,12.18
2018-12-31T11:11:55.680Z,11.40
2018-12-31T11:14:36.014Z,11.28
2018-12-31T11:17:15.972Z,11.15
2018-12-31T11:19:57.052Z,11.25
2018-12-31T11:22:37.045Z,12.03
2018-12-31T11:25:19.123Z,11.73
2018-12-31T11:27:58.789Z,11.85
2018-12-31T11:30:38.533Z,10.05
2018-12-31T11:33:18.275Z,21.05
2018-12-31T11:35:58.386Z,11.70
2018-12-31T11:38:39.650Z,14.50
2018-12-31T11:41:20.268Z,11.73
2018-12-31T11:44:00.043Z,11.25
2018-12-31T11:46:40.176Z,11.75
2018-12-31T11:49:19.873Z,11.45
2018-12-31T11:51:59.664Z,15.00
2018-12-31T11:54:39.465Z,11.90
2018-12-31T11:57:19.311Z,10.85
2018-12-31T12:00:01.270Z,10.23
2018-12-31T12:02:44.338Z,11.45
2018-12-31T12:05:24.083Z,9.50
2018-12-31T12:08:07.377Z,9.13
2018-12-31T12:10:47.101Z,8.58
2018-12-31T12:13:27.314Z,7.97
2018-12-31T12:16:07.102Z,9.00
2018-12-31T12:18:46.937Z,8.25
2018-12-31T12:21:26.788Z,8.88
2018-12-31T12:24:06.551Z,9.00
2018-12-31T12:26:46.365Z,8.33
2018-12-31T12:29:28.983Z,9.03
2018-12-31T12:32:11.700Z,8.75
2018-12-31T12:34:51.919Z,9.00
2018-12-31T12:37:32.440Z,9.15
2018-12-31T12:40:12.434Z,9.03
2018-12-31T12:42:52.209Z,9.25
2018-12-31T12:45:36.311Z,9.05
2018-12-31T12:48:16.315Z,8.60
2018-12-31T12:50:56.963Z,8.75
2018-12-31T12:53:36.861Z,8.03
2018-12-31T12:56:16.859Z,8.78
2018-12-31T12:58:56.845Z,8.85
2018-12-31T13:01:37.049Z,9.35
2018-12-31T13:04:17.120Z,10.20
2018-12-31T13:06:56.900Z,11.88
2018-12-31T13:09:36.785Z,10.45
2018-12-31T13:12:17.927Z,9.43
2018-12-31T13:14:59.270Z,10.38
2018-12-31T13:17:39.054Z,10.30
2018-12-31T13:20:18.966Z,10.20
2018-12-31T13:22:58.783Z,10.30
2018-12-31T13:25:38.931Z,10.32
2018-12-31T13:28:19.714Z,10.68
2018-12-31T13:30:59.664Z,11.40
2018-12-31T13:33:39.534Z,11.80
2018-12-31T13:36:19.227Z,11.57
2018-12-31T13:39:00.133Z,10.70
2018-12-31T13:41:41.770Z,11.25
2018-12-31T13:44:21.640Z,13.18
2018-12-31T13:47:01.568Z,12.30
2018-12-31T13:49:41.847Z,12.00
2018-12-31T13:52:21.766Z,12.03
2018-12-31T13:55:01.876Z,11.50
2018-12-31T13:57:41.668Z,12.23
2018-12-31T14:00:21.415Z,11.95
2018-12-31T14:03:01.132Z,12.63
2018-12-31T14:05:41.094Z,12.93
2018-12-31T14:08:20.957Z,13.25
2018-12-31T14:11:01.221Z,13.20
2018-12-31T14:13:41.144Z,14.35
2018-12-31T14:16:21.039Z,12.78
2018-12-31T14:19:01.844Z,12.40
2018-12-31T14:21:41.625Z,12.50
2018-12-31T14:24:21.313Z,13.90
2018-12-31T14:27:03.133Z,16.32
2018-12-31T14:29:42.945Z,12.60
2018-12-31T14:32:24.440Z,12.18
2018-12-31T14:35:04.445Z,11.45
2018-12-31T14:37:44.970Z,11.88
2018-12-31T14:40:25.047Z,10.72
2018-12-31T14:43:04.948Z,12.78
2018-12-31T14:45:44.759Z,12.60
2018-12-31T14:48:24.801Z,11.33
2018-12-31T14:51:04.540Z,11.50
2018-12-31T14:53:44.611Z,10.38
2018-12-31T14:56:24.356Z,12.25
2018-12-31T14:59:04.845Z,11.70
2018-12-31T15:01:45.266Z,13.38
2018-12-31T15:04:27.968Z,13.60
2018-12-31T15:07:07.974Z,13.03
2018-12-31T15:09:48.872Z,12.93
2018-12-31T15:12:29.028Z,14.10
2018-12-31T15:15:09.544Z,14.05
2018-12-31T15:17:52.201Z,13.93
2018-12-31T15:20:34.570Z,14.33
2018-12-31T15:23:17.237Z,13.30
2018-12-31T15:26:10.606Z,13.43
2018-12-31T15:28:50.627Z,14.60
2018-12-31T15:31:30.458Z,15.00
2018-12-31T15:34:10.235Z,14.23
2018-12-31T15:36:50.050Z,14.55
2018-12-31T15:39:29.992Z,15.65
2018-12-31T15:42:09.693Z,15.83
2018-12-31T15:44:55.172Z,15.93
2018-12-31T15:47:35.009Z,19.55
2018-12-31T15:50:17.685Z,19.75
2018-12-31T15:52:58.756Z,19.65
2018-12-31T15:55:42.069Z,22.40
2018-12-31T15:58:22.060Z,21.48
2018-12-31T16:01:02.029Z,18.82
2018-12-31T16:03:41.818Z,19.60
2018-12-31T16:06:21.584Z,21.65
2018-12-31T16:09:01.465Z,20.95
2018-12-31T16:11:41.809Z,22.87
2018-12-31T16:14:21.773Z,25.10
2018-12-31T16:17:01.892Z,21.05
2018-12-31T16:19:42.444Z,19.98
2018-12-31T16:22:22.395Z,21.95
2018-12-31T16:25:04.456Z,18.32
2018-12-31T16:27:45.492Z,19.05
2018-12-31T16:30:29.818Z,30.17
2018-12-31T16:33:12.566Z,22.13
2018-12-31T16:35:52.402Z,21.77
2018-12-31T16:38:32.199Z,25.97
2018-12-31T16:41:12.163Z,24.55
2018-12-31T16:43:52.021Z,22.40
2018-12-31T16:46:31.733Z,23.25
2018-12-31T16:49:12.977Z,23.50
2018-12-31T16:51:52.680Z,25.32
2018-12-31T16:54:33.739Z,29.45
2018-12-31T16:57:16.839Z,27.60
2018-12-31T16:59:56.566Z,37.45
2018-12-31T17:02:36.850Z,30.43
2018-12-31T17:05:16.717Z,44.65
2018-12-31T17:07:56.717Z,48.35
2018-12-31T17:10:40.945Z,55.23
2018-12-31T17:13:20.757Z,54.73
2018-12-31T17:16:02.560Z,47.20
2018-12-31T17:18:42.379Z,35.15
2018-12-31T17:21:22.237Z,33.23
2018-12-31T17:24:01.848Z,33.45
2018-12-31T17:26:41.874Z,30.97
2018-12-31T17:29:22.260Z,26.90
2018-12-31T17:32:03.003Z,30.72
2018-12-31T17:34:46.383Z,26.05
2018-12-31T17:37:28.951Z,28.67
2018-12-31T17:40:08.818Z,27.42
2018-12-31T17:42:48.446Z,26.40
2018-12-31T17:45:31.541Z,25.35
2018-12-31T17:48:11.399Z,27.40
2018-12-31T17:50:51.303Z,24.43
2018-12-31T17:53:31.149Z,24.47
2018-12-31T17:56:10.854Z,24.90
2018-12-31T17:58:51.235Z,26.35
2018-12-31T18:01:31.546Z,24.72
2018-12-31T18:04:14.028Z,23.47
2018-12-31T18:06:53.705Z,21.65
2018-12-31T18:09:33.759Z,25.15
2018-12-31T18:12:13.551Z,26.40
2018-12-31T18:14:53.564Z,29.23
2018-12-31T18:17:33.348Z,23.85
2018-12-31T18:20:13.327Z,24.10
2018-12-31T18:22:53.249Z,26.97
2018-12-31T18:25:33.120Z,31.10
2018-12-31T18:28:13.047Z,31.68
2018-12-31T18:30:53.508Z,40.35
2018-12-31T18:33:33.190Z,43.40
2018-12-31T18:36:12.803Z,32.98
2018-12-31T18:38:52.518Z,29.20
2018-12-31T18:41:34.844Z,28.42
2018-12-31T18:44:15.571Z,32.55
2018-12-31T18:46:55.296Z,32.88
2018-12-31T18:49:35.280Z,24.77
2018-12-31T18:52:15.464Z,24.15
2018-12-31T18:54:55.266Z,23.73
2018-12-31T18:57:35.468Z,21.45
2018-12-31T19:00:16.714Z,23.15
2018-12-31T19:02:59.779Z,22.95
2018-12-31T19:05:39.563Z,22.70
2018-12-31T19:08:20.808Z,25.37
2018-12-31T19:11:00.886Z,27.22
2018-12-31T19:13:42.903Z,25.97
2018-12-31T19:16:22.742Z,28.02
2018-12-31T19:19:02.412Z,28.42
2018-12-31T19:21:42.113Z,23.47
2018-12-31T19:24:24.567Z,21.73
2018-12-31T19:27:07.230Z,21.93
2018-12-31T19:29:46.921Z,20.15
2018-12-31T19:32:26.620Z,20.45
2018-12-31T19:35:06.804Z,22.27
2018-12-31T19:37:50.026Z,22.77
2018-12-31T19:40:29.869Z,24.10
2018-12-31T19:43:09.639Z,41.83
2018-12-31T19:45:49.402Z,26.85
2018-12-31T19:48:29.031Z,25.75
2018-12-31T19:51:09.344Z,22.77
2018-12-31T19:53:49.191Z,25.75
2018-12-31T19:56:28.853Z,30.60
2018-12-31T19:59:09.390Z,32.93
2018-12-31T20:01:50.612Z,32.42
2018-12-31T20:04:31.748Z,34.50
2018-12-31T20:07:11.574Z,47.23
2018-12-31T20:09:52.149Z,55.28
2018-12-31T20:12:33.175Z,39.42
2018-12-31T20:15:13.962Z,39.13
2018-12-31T20:17:54.259Z,36.03
2018-12-31T20:20:34.001Z,44.73
2018-12-31T20:23:13.768Z,44.03
2018-12-31T20:25:53.459Z,33.40
2018-12-31T20:28:33.919Z,28.90
2018-12-31T20:31:13.539Z,37.55
2018-12-31T20:33:53.555Z,38.20
2018-12-31T20:36:33.717Z,35.52
2018-12-31T20:39:13.467Z,35.00
2018-12-31T20:41:53.408Z,31.15
2018-12-31T20:44:33.562Z,30.90
2018-12-31T20:47:16.619Z,48.58
2018-12-31T20:49:56.821Z,43.85
2018-12-31T20:52:36.795Z,47.23
2018-12-31T20:55:18.670Z,40.03
2018-12-31T20:57:58.660Z,44.10
2018-12-31T21:00:38.545Z,38.80
2018-12-31T21:03:20.725Z,37.67
2018-12-31T21:06:02.701Z,36.17
2018-12-31T21:08:43.087Z,34.40
2018-12-31T21:11:22.933Z,40.33
2018-12-31T21:14:04.351Z,38.28
2018-12-31T21:16:56.529Z,41.45
2018-12-31T21:19:36.318Z,45.05
2018-12-31T21:22:16.013Z,41.30
2018-12-31T21:24:58.588Z,34.55
2018-12-31T21:27:40.009Z,31.77
2018-12-31T21:30:19.920Z,36.50
2018-12-31T21:33:00.011Z,38.00
2018-12-31T21:35:40.459Z,37.98
2018-12-31T21:38:20.328Z,50.43
2018-12-31T21:41:01.870Z,46.70
2018-12-31T21:43:43.013Z,50.45
2018-12-31T21:46:22.798Z,60.48
2018-12-31T21:49:03.995Z,63.68
2018-12-31T21:51:43.744Z,55.48
2018-12-31T21:54:26.430Z,47.00
2018-12-31T21:57:06.367Z,44.00
2018-12-31T21:59:46.622Z,40.75
2018-12-31T22:02:26.484Z,38.50
2018-12-31T22:05:06.666Z,38.53
2018-12-31T22:07:46.410Z,32.15
2018-12-31T22:10:26.304Z,31.25
2018-12-31T22:13:06.020Z,30.68
2018-12-31T22:15:46.124Z,31.40
2018-12-31T22:18:26.342Z,30.10
2018-12-31T22:21:06.177Z,50.48
2018-12-31T22:23:45.958Z,42.98
2018-12-31T22:26:25.826Z,38.40
2018-12-31T22:29:09.384Z,48.17
2018-12-31T22:31:51.355Z,53.23
2018-12-31T22:34:31.529Z,83.27
2018-12-31T22:37:11.620Z,60.90
2018-12-31T22:39:51.943Z,51.23
2018-12-31T22:42:31.903Z,39.30
2018-12-31T22:45:12.091Z,32.80
2018-12-31T22:47:53.834Z,55.25
2018-12-31T22:50:33.687Z,51.45
2018-12-31T22:53:13.493Z,93.10
2018-12-31T22:55:53.422Z,36.28
2018-12-31T22:58:37.658Z,32.08
2018-12-31T23:01:17.951Z,44.35
2018-12-31T23:04:00.629Z,276.32
2018-12-31T23:06:41.874Z,178.80
2018-12-31T23:09:24.587Z,291.27
2018-12-31T23:12:04.893Z,352.38
2018-12-31T23:14:44.828Z,387.63
2018-12-31T23:17:28.566Z,347.50
2018-12-31T23:20:11.442Z,265.90
2018-12-31T23:22:52.916Z,236.35
2018-12-31T23:25:38.598Z,338.30
2018-12-31T23:28:18.583Z,238.85
2018-12-31T23:30:59.506Z,381.50
2018-12-31T23:33:40.724Z,314.05
2018-12-31T23:36:20.677Z,131.20
2018-12-31T23:39:05.244Z,114.50
2018-12-31T23:41:43.767Z,100.12
2018-12-31T23:44:24.762Z,90.17
2018-12-31T23:47:04.546Z,92.00
2018-12-31T23:49:46.951Z,66.02
2018-12-31T23:52:28.283Z,96.97
2018-12-31T23:55:08.722Z,71.05
2018-12-31T23:57:48.542Z,47.67
